Bethel, ME

7:10 PM EDT on July 07, 2015 (GMT -0400)
Albany Township | | Change Station
CLOSE
Current Station
Personal Weather Station
Location: Albany Township, ME
Elevation: 1037 ft
Nearby Weather Stations

Elev 1037 ft 44.30 °N, 70.75 °W | Updated 5 days ago

Mostly Cloudy
Mostly Cloudy
70 °F
Feels Like 70 °F
N
6
Wind Variable Wind from South
Gusts 11 mph

Today
High -- | Low -- °F
--% Chance of Precip.
Yesterday
High -- | Low -- °F
Precip. -- in
5:06 AM 8:29 PM
Waning Gibbous, 60% visible
Pressure 29.96 in
Visibility 5.0 miles
Clouds Few 1500 ft
Mostly Cloudy 4600 ft
Overcast 6500 ft
Dew Point 67 °F
Humidity 89%
Rainfall in
Snow Depth Not available.
UV 0.0 out of 12
Pollen 3.20 out of 12
Air Quality Not available.
Flu Activity Not available.
METAR KLEW 072255Z 16006KT 5SM FEW015 BKN046 OVC065 22/19 A2996 RMK AO1

More Conditions Fewer Conditions

Pressure 29.96 in
Visibility 5.0 miles
Clouds Few 1500 ft
Mostly Cloudy 4600 ft
Overcast 6500 ft
Dew Point 67 °F
Humidity 89%
Rainfall in
Snow Depth Not available.
UV 0.0 out of 12
Pollen 3.20 out of 12
Air Quality Not available.
Flu Activity Not available.
METAR KLEW 072255Z 16006KT 5SM FEW015 BKN046 OVC065 22/19 A2996 RMK AO1

More Conditions Fewer Conditions

10-Day Weather Forecast

×

Almanac

Astronomy

Jul. 07, 2015 Rise Set
Actual Time
Civil Twilight
Nautical Twilight
Astronomical Twilight
Moon
Length of Visible Light
Length of Day
Tomorrow will be .
, % of the Moon is Illuminated

Today's Extremes

State Highs State Lows

Community

WunderPhotos

Upload Photos

1,835,951 photos uploaded!

WunderBlogs® & News

Nearby

Air Quality

  Air Quality AQ Index Pollutant
Not available.

Snow Depth

Station Depth Elevation

Earthquake Activity

City Distance Mag. Time & Date
Minimum magnitude displayed is 2.5.

Coastal Water Temperatures

Place Temperature

Stations

Nearby Weather Stations

Station Location Temp. Windchill Dew Point Humidity Wind Precip. Elev Updated Type